sensor_id;sensor_type;location;lat;lon;timestamp;P1;durP1;ratioP1;P2;durP2;ratioP2
39956;SDS011;48483;44.640;7.494;2023-01-05T00:00:52;25.23;;;20.13;;
39956;SDS011;48483;44.640;7.494;2023-01-05T00:03:20;23.63;;;20.25;;
39956;SDS011;48483;44.640;7.494;2023-01-05T00:05:47;26.48;;;20.45;;
39956;SDS011;48483;44.640;7.494;2023-01-05T00:08:14;28.40;;;22.42;;
39956;SDS011;48483;44.640;7.494;2023-01-05T00:10:40;26.65;;;21.75;;
39956;SDS011;48483;44.640;7.494;2023-01-05T00:13:27;28.42;;;22.15;;
39956;SDS011;48483;44.640;7.494;2023-01-05T00:16:13;27.58;;;21.98;;
39956;SDS011;48483;44.640;7.494;2023-01-05T00:19:09;27.20;;;19.95;;
39956;SDS011;48483;44.640;7.494;2023-01-05T00:21:55;25.90;;;21.08;;
39956;SDS011;48483;44.640;7.494;2023-01-05T00:24:41;27.95;;;21.15;;
39956;SDS011;48483;44.640;7.494;2023-01-05T00:27:07;27.40;;;22.88;;
39956;SDS011;48483;44.640;7.494;2023-01-05T00:29:36;26.45;;;20.60;;
39956;SDS011;48483;44.640;7.494;2023-01-05T00:32:02;32.55;;;23.23;;
39956;SDS011;48483;44.640;7.494;2023-01-05T00:34:29;27.60;;;22.15;;
39956;SDS011;48483;44.640;7.494;2023-01-05T00:36:55;25.77;;;20.30;;
39956;SDS011;48483;44.640;7.494;2023-01-05T00:39:22;29.13;;;22.20;;
39956;SDS011;48483;44.640;7.494;2023-01-05T00:41:49;29.60;;;23.02;;
39956;SDS011;48483;44.640;7.494;2023-01-05T00:44:15;28.40;;;23.38;;
39956;SDS011;48483;44.640;7.494;2023-01-05T00:46:43;28.55;;;22.73;;
39956;SDS011;48483;44.640;7.494;2023-01-05T00:49:10;26.40;;;21.33;;
39956;SDS011;48483;44.640;7.494;2023-01-05T00:51:37;27.73;;;21.52;;
39956;SDS011;48483;44.640;7.494;2023-01-05T00:54:03;26.13;;;22.05;;
39956;SDS011;48483;44.640;7.494;2023-01-05T00:56:30;29.38;;;21.73;;
39956;SDS011;48483;44.640;7.494;2023-01-05T00:58:56;27.38;;;20.95;;
39956;SDS011;48483;44.640;7.494;2023-01-05T01:01:24;29.15;;;22.13;;
39956;SDS011;48483;44.640;7.494;2023-01-05T01:03:52;25.88;;;20.98;;
39956;SDS011;48483;44.640;7.494;2023-01-05T01:06:20;26.65;;;21.42;;
39956;SDS011;48483;44.640;7.494;2023-01-05T01:08:47;27.80;;;19.85;;
39956;SDS011;48483;44.640;7.494;2023-01-05T01:11:14;26.02;;;20.33;;
39956;SDS011;48483;44.640;7.494;2023-01-05T01:13:44;27.05;;;21.08;;
39956;SDS011;48483;44.640;7.494;2023-01-05T01:16:11;27.27;;;20.33;;
39956;SDS011;48483;44.640;7.494;2023-01-05T01:18:40;28.13;;;21.73;;
39956;SDS011;48483;44.640;7.494;2023-01-05T01:21:08;25.10;;;20.52;;
39956;SDS011;48483;44.640;7.494;2023-01-05T01:23:35;27.95;;;20.70;;
39956;SDS011;48483;44.640;7.494;2023-01-05T01:26:05;26.88;;;20.48;;
39956;SDS011;48483;44.640;7.494;2023-01-05T01:28:33;27.92;;;20.85;;
39956;SDS011;48483;44.640;7.494;2023-01-05T01:31:00;27.13;;;20.25;;
39956;SDS011;48483;44.640;7.494;2023-01-05T01:33:27;24.80;;;19.05;;
39956;SDS011;48483;44.640;7.494;2023-01-05T01:35:54;23.88;;;17.73;;
39956;SDS011;48483;44.640;7.494;2023-01-05T01:38:23;23.05;;;18.40;;
39956;SDS011;48483;44.640;7.494;2023-01-05T01:40:50;25.23;;;19.83;;
39956;SDS011;48483;44.640;7.494;2023-01-05T01:43:17;24.02;;;17.58;;
39956;SDS011;48483;44.640;7.494;2023-01-05T01:46:04;23.85;;;17.65;;
39956;SDS011;48483;44.640;7.494;2023-01-05T01:48:32;22.80;;;17.23;;
39956;SDS011;48483;44.640;7.494;2023-01-05T01:51:01;20.50;;;17.35;;
39956;SDS011;48483;44.640;7.494;2023-01-05T01:58:30;21.20;;;16.30;;
39956;SDS011;48483;44.640;7.494;2023-01-05T02:00:57;21.42;;;17.33;;
39956;SDS011;48483;44.640;7.494;2023-01-05T02:03:28;26.83;;;18.35;;
39956;SDS011;48483;44.640;7.494;2023-01-05T02:05:55;25.73;;;18.02;;
39956;SDS011;48483;44.640;7.494;2023-01-05T02:08:23;25.13;;;19.08;;
39956;SDS011;48483;44.640;7.494;2023-01-05T02:11:04;23.80;;;18.15;;
39956;SDS011;48483;44.640;7.494;2023-01-05T02:13:45;23.73;;;17.52;;
39956;SDS011;48483;44.640;7.494;2023-01-05T02:16:24;20.27;;;16.58;;
39956;SDS011;48483;44.640;7.494;2023-01-05T02:19:12;21.35;;;16.65;;
39956;SDS011;48483;44.640;7.494;2023-01-05T02:22:32;24.67;;;17.27;;
39956;SDS011;48483;44.640;7.494;2023-01-05T02:25:28;21.20;;;17.88;;
39956;SDS011;48483;44.640;7.494;2023-01-05T02:28:23;20.75;;;15.75;;
39956;SDS011;48483;44.640;7.494;2023-01-05T02:31:10;25.15;;;17.50;;
39956;SDS011;48483;44.640;7.494;2023-01-05T02:33:49;25.42;;;19.25;;
39956;SDS011;48483;44.640;7.494;2023-01-05T02:36:27;30.52;;;22.85;;
39956;SDS011;48483;44.640;7.494;2023-01-05T02:39:03;37.13;;;27.65;;
39956;SDS011;48483;44.640;7.494;2023-01-05T02:41:40;33.63;;;26.63;;
39956;SDS011;48483;44.640;7.494;2023-01-05T02:44:14;36.42;;;27.17;;
39956;SDS011;48483;44.640;7.494;2023-01-05T02:46:44;34.95;;;27.40;;
39956;SDS011;48483;44.640;7.494;2023-01-05T02:49:11;34.13;;;26.10;;
39956;SDS011;48483;44.640;7.494;2023-01-05T02:51:42;31.90;;;25.67;;
39956;SDS011;48483;44.640;7.494;2023-01-05T02:54:15;34.15;;;24.63;;
39956;SDS011;48483;44.640;7.494;2023-01-05T02:56:48;30.83;;;24.52;;
39956;SDS011;48483;44.640;7.494;2023-01-05T02:59:22;29.10;;;22.08;;
39956;SDS011;48483;44.640;7.494;2023-01-05T03:01:56;29.15;;;23.63;;
39956;SDS011;48483;44.640;7.494;2023-01-05T03:04:25;33.08;;;23.65;;
39956;SDS011;48483;44.640;7.494;2023-01-05T03:07:00;35.00;;;25.48;;
39956;SDS011;48483;44.640;7.494;2023-01-05T03:09:30;38.22;;;29.40;;
39956;SDS011;48483;44.640;7.494;2023-01-05T03:12:06;38.15;;;29.05;;
39956;SDS011;48483;44.640;7.494;2023-01-05T03:14:56;39.92;;;28.52;;
39956;SDS011;48483;44.640;7.494;2023-01-05T03:17:28;40.80;;;28.45;;
39956;SDS011;48483;44.640;7.494;2023-01-05T03:19:58;40.30;;;28.13;;
39956;SDS011;48483;44.640;7.494;2023-01-05T03:22:27;36.65;;;27.20;;
39956;SDS011;48483;44.640;7.494;2023-01-05T03:25:15;39.67;;;26.88;;
39956;SDS011;48483;44.640;7.494;2023-01-05T03:28:02;35.38;;;25.70;;
39956;SDS011;48483;44.640;7.494;2023-01-05T03:30:51;30.05;;;23.63;;
39956;SDS011;48483;44.640;7.494;2023-01-05T03:36:34;24.98;;;19.67;;
39956;SDS011;48483;44.640;7.494;2023-01-05T03:39:07;24.52;;;19.00;;
39956;SDS011;48483;44.640;7.494;2023-01-05T03:41:35;24.95;;;18.73;;
39956;SDS011;48483;44.640;7.494;2023-01-05T03:44:03;23.33;;;19.20;;
39956;SDS011;48483;44.640;7.494;2023-01-05T03:46:34;20.70;;;15.63;;
39956;SDS011;48483;44.640;7.494;2023-01-05T03:49:04;21.85;;;16.27;;
39956;SDS011;48483;44.640;7.494;2023-01-05T03:51:31;20.15;;;15.48;;
39956;SDS011;48483;44.640;7.494;2023-01-05T03:53:57;20.10;;;14.57;;
39956;SDS011;48483;44.640;7.494;2023-01-05T03:56:24;21.27;;;14.90;;
39956;SDS011;48483;44.640;7.494;2023-01-05T03:58:54;19.80;;;14.23;;
39956;SDS011;48483;44.640;7.494;2023-01-05T04:01:21;19.30;;;16.33;;
39956;SDS011;48483;44.640;7.494;2023-01-05T04:03:48;19.05;;;15.60;;
39956;SDS011;48483;44.640;7.494;2023-01-05T04:06:16;23.80;;;15.82;;
39956;SDS011;48483;44.640;7.494;2023-01-05T04:08:43;21.63;;;15.65;;
39956;SDS011;48483;44.640;7.494;2023-01-05T04:11:11;19.83;;;15.55;;
39956;SDS011;48483;44.640;7.494;2023-01-05T04:13:39;19.55;;;15.68;;
39956;SDS011;48483;44.640;7.494;2023-01-05T04:16:06;18.77;;;15.68;;
39956;SDS011;48483;44.640;7.494;2023-01-05T04:18:34;19.08;;;15.77;;
39956;SDS011;48483;44.640;7.494;2023-01-05T04:21:02;22.35;;;17.23;;
39956;SDS011;48483;44.640;7.494;2023-01-05T04:23:30;24.55;;;17.83;;
39956;SDS011;48483;44.640;7.494;2023-01-05T04:25:57;23.02;;;16.83;;
39956;SDS011;48483;44.640;7.494;2023-01-05T04:28:24;21.95;;;16.98;;
39956;SDS011;48483;44.640;7.494;2023-01-05T04:30:53;24.00;;;18.15;;
39956;SDS011;48483;44.640;7.494;2023-01-05T04:33:23;24.95;;;17.55;;
39956;SDS011;48483;44.640;7.494;2023-01-05T04:35:51;19.92;;;15.50;;
39956;SDS011;48483;44.640;7.494;2023-01-05T04:38:18;23.13;;;16.30;;
39956;SDS011;48483;44.640;7.494;2023-01-05T04:40:48;22.15;;;17.27;;
39956;SDS011;48483;44.640;7.494;2023-01-05T04:43:15;23.43;;;17.27;;
39956;SDS011;48483;44.640;7.494;2023-01-05T04:45:43;22.23;;;16.67;;
39956;SDS011;48483;44.640;7.494;2023-01-05T04:48:11;24.48;;;17.13;;
39956;SDS011;48483;44.640;7.494;2023-01-05T04:50:39;25.20;;;18.63;;
39956;SDS011;48483;44.640;7.494;2023-01-05T04:53:06;28.38;;;18.17;;
39956;SDS011;48483;44.640;7.494;2023-01-05T04:55:39;22.58;;;17.83;;
39956;SDS011;48483;44.640;7.494;2023-01-05T04:58:07;20.77;;;16.17;;
39956;SDS011;48483;44.640;7.494;2023-01-05T05:00:34;23.00;;;17.15;;
39956;SDS011;48483;44.640;7.494;2023-01-05T05:03:04;21.95;;;17.17;;
39956;SDS011;48483;44.640;7.494;2023-01-05T05:05:33;20.45;;;16.80;;
39956;SDS011;48483;44.640;7.494;2023-01-05T05:08:00;21.88;;;16.75;;
39956;SDS011;48483;44.640;7.494;2023-01-05T05:10:28;22.55;;;16.75;;
39956;SDS011;48483;44.640;7.494;2023-01-05T05:12:55;21.23;;;16.88;;
39956;SDS011;48483;44.640;7.494;2023-01-05T05:15:24;22.17;;;16.40;;
39956;SDS011;48483;44.640;7.494;2023-01-05T05:17:50;23.10;;;16.27;;
39956;SDS011;48483;44.640;7.494;2023-01-05T05:20:17;22.45;;;17.52;;
39956;SDS011;48483;44.640;7.494;2023-01-05T05:22:44;26.23;;;17.08;;
39956;SDS011;48483;44.640;7.494;2023-01-05T05:27:44;20.08;;;15.45;;
39956;SDS011;48483;44.640;7.494;2023-01-05T05:30:11;19.13;;;14.60;;
39956;SDS011;48483;44.640;7.494;2023-01-05T05:32:39;22.02;;;15.43;;
39956;SDS011;48483;44.640;7.494;2023-01-05T05:35:06;24.02;;;16.80;;
39956;SDS011;48483;44.640;7.494;2023-01-05T05:37:33;22.67;;;16.02;;
39956;SDS011;48483;44.640;7.494;2023-01-05T05:40:00;22.05;;;15.30;;
39956;SDS011;48483;44.640;7.494;2023-01-05T05:42:27;18.92;;;15.50;;
39956;SDS011;48483;44.640;7.494;2023-01-05T05:44:53;21.30;;;17.05;;
39956;SDS011;48483;44.640;7.494;2023-01-05T05:47:20;19.73;;;15.27;;
39956;SDS011;48483;44.640;7.494;2023-01-05T05:49:48;21.67;;;16.02;;
39956;SDS011;48483;44.640;7.494;2023-01-05T05:52:15;20.40;;;16.50;;
39956;SDS011;48483;44.640;7.494;2023-01-05T05:54:42;22.52;;;16.05;;
39956;SDS011;48483;44.640;7.494;2023-01-05T05:57:09;19.85;;;15.40;;
39956;SDS011;48483;44.640;7.494;2023-01-05T05:59:35;20.70;;;15.68;;
39956;SDS011;48483;44.640;7.494;2023-01-05T06:02:02;20.42;;;15.38;;
39956;SDS011;48483;44.640;7.494;2023-01-05T06:04:28;22.30;;;17.02;;
39956;SDS011;48483;44.640;7.494;2023-01-05T06:06:56;21.08;;;16.08;;
39956;SDS011;48483;44.640;7.494;2023-01-05T06:09:23;21.67;;;16.08;;
39956;SDS011;48483;44.640;7.494;2023-01-05T06:11:50;25.67;;;15.27;;
39956;SDS011;48483;44.640;7.494;2023-01-05T06:14:16;23.40;;;16.48;;
39956;SDS011;48483;44.640;7.494;2023-01-05T06:16:43;20.83;;;16.35;;
39956;SDS011;48483;44.640;7.494;2023-01-05T06:19:10;21.10;;;15.98;;
39956;SDS011;48483;44.640;7.494;2023-01-05T06:21:37;20.55;;;14.70;;
39956;SDS011;48483;44.640;7.494;2023-01-05T06:24:05;20.15;;;15.60;;
39956;SDS011;48483;44.640;7.494;2023-01-05T06:26:32;20.58;;;15.15;;
39956;SDS011;48483;44.640;7.494;2023-01-05T06:28:59;20.13;;;15.30;;
39956;SDS011;48483;44.640;7.494;2023-01-05T06:31:25;19.45;;;15.93;;
39956;SDS011;48483;44.640;7.494;2023-01-05T06:33:52;20.10;;;14.13;;
39956;SDS011;48483;44.640;7.494;2023-01-05T06:36:19;16.58;;;13.85;;
39956;SDS011;48483;44.640;7.494;2023-01-05T06:38:45;21.17;;;15.00;;
39956;SDS011;48483;44.640;7.494;2023-01-05T06:41:13;24.42;;;14.80;;
39956;SDS011;48483;44.640;7.494;2023-01-05T06:43:40;19.60;;;13.95;;
39956;SDS011;48483;44.640;7.494;2023-01-05T06:46:07;18.50;;;13.80;;
39956;SDS011;48483;44.640;7.494;2023-01-05T06:48:34;18.17;;;14.07;;
39956;SDS011;48483;44.640;7.494;2023-01-05T06:51:00;17.58;;;12.82;;
39956;SDS011;48483;44.640;7.494;2023-01-05T06:53:27;16.90;;;12.82;;
39956;SDS011;48483;44.640;7.494;2023-01-05T06:55:54;15.75;;;12.18;;
39956;SDS011;48483;44.640;7.494;2023-01-05T06:58:22;19.83;;;12.57;;
39956;SDS011;48483;44.640;7.494;2023-01-05T07:00:48;16.10;;;11.70;;
39956;SDS011;48483;44.640;7.494;2023-01-05T07:03:15;18.00;;;12.13;;
39956;SDS011;48483;44.640;7.494;2023-01-05T07:05:43;14.25;;;11.85;;
39956;SDS011;48483;44.640;7.494;2023-01-05T07:08:12;13.82;;;11.23;;
39956;SDS011;48483;44.640;7.494;2023-01-05T07:10:39;16.00;;;12.50;;
39956;SDS011;48483;44.640;7.494;2023-01-05T07:13:05;15.90;;;12.35;;
39956;SDS011;48483;44.640;7.494;2023-01-05T07:15:33;18.20;;;13.05;;
39956;SDS011;48483;44.640;7.494;2023-01-05T07:18:00;20.67;;;13.55;;
39956;SDS011;48483;44.640;7.494;2023-01-05T07:20:27;27.15;;;13.23;;
39956;SDS011;48483;44.640;7.494;2023-01-05T07:22:53;21.02;;;13.60;;
39956;SDS011;48483;44.640;7.494;2023-01-05T07:25:20;19.17;;;11.93;;
39956;SDS011;48483;44.640;7.494;2023-01-05T07:27:48;17.77;;;11.98;;
39956;SDS011;48483;44.640;7.494;2023-01-05T07:30:16;17.52;;;11.98;;
39956;SDS011;48483;44.640;7.494;2023-01-05T07:32:44;15.77;;;11.75;;
39956;SDS011;48483;44.640;7.494;2023-01-05T07:35:11;21.75;;;10.70;;
39956;SDS011;48483;44.640;7.494;2023-01-05T07:37:38;16.80;;;12.02;;
39956;SDS011;48483;44.640;7.494;2023-01-05T07:40:05;17.10;;;12.25;;
39956;SDS011;48483;44.640;7.494;2023-01-05T07:42:32;16.00;;;11.95;;
39956;SDS011;48483;44.640;7.494;2023-01-05T07:44:59;17.77;;;12.70;;
39956;SDS011;48483;44.640;7.494;2023-01-05T07:47:26;18.17;;;12.77;;
39956;SDS011;48483;44.640;7.494;2023-01-05T07:49:54;16.95;;;12.82;;
39956;SDS011;48483;44.640;7.494;2023-01-05T07:52:21;19.20;;;12.48;;
39956;SDS011;48483;44.640;7.494;2023-01-05T07:54:47;19.38;;;14.23;;
39956;SDS011;48483;44.640;7.494;2023-01-05T07:57:14;25.98;;;17.10;;
39956;SDS011;48483;44.640;7.494;2023-01-05T07:59:41;19.60;;;16.02;;
39956;SDS011;48483;44.640;7.494;2023-01-05T08:02:07;21.33;;;16.02;;
39956;SDS011;48483;44.640;7.494;2023-01-05T08:04:35;17.13;;;12.77;;
39956;SDS011;48483;44.640;7.494;2023-01-05T08:07:03;18.65;;;13.50;;
39956;SDS011;48483;44.640;7.494;2023-01-05T08:09:35;18.23;;;14.43;;
39956;SDS011;48483;44.640;7.494;2023-01-05T08:12:21;22.48;;;15.00;;
39956;SDS011;48483;44.640;7.494;2023-01-05T08:14:47;23.00;;;15.48;;
39956;SDS011;48483;44.640;7.494;2023-01-05T08:17:14;24.40;;;15.70;;
39956;SDS011;48483;44.640;7.494;2023-01-05T08:19:40;21.48;;;15.10;;
39956;SDS011;48483;44.640;7.494;2023-01-05T08:22:08;21.17;;;15.80;;
39956;SDS011;48483;44.640;7.494;2023-01-05T08:24:35;19.10;;;15.43;;
39956;SDS011;48483;44.640;7.494;2023-01-05T08:27:02;19.92;;;16.70;;
39956;SDS011;48483;44.640;7.494;2023-01-05T08:29:28;22.30;;;16.45;;
39956;SDS011;48483;44.640;7.494;2023-01-05T08:31:55;22.50;;;15.18;;
39956;SDS011;48483;44.640;7.494;2023-01-05T08:34:22;19.20;;;15.35;;
39956;SDS011;48483;44.640;7.494;2023-01-05T08:36:48;20.52;;;15.45;;
39956;SDS011;48483;44.640;7.494;2023-01-05T08:39:16;22.75;;;16.75;;
39956;SDS011;48483;44.640;7.494;2023-01-05T08:41:43;22.33;;;15.38;;
39956;SDS011;48483;44.640;7.494;2023-01-05T08:44:10;22.15;;;15.15;;
39956;SDS011;48483;44.640;7.494;2023-01-05T08:46:38;21.17;;;16.40;;
39956;SDS011;48483;44.640;7.494;2023-01-05T08:49:05;19.98;;;15.25;;
39956;SDS011;48483;44.640;7.494;2023-01-05T08:51:34;18.80;;;13.85;;
39956;SDS011;48483;44.640;7.494;2023-01-05T08:54:00;18.55;;;14.40;;
39956;SDS011;48483;44.640;7.494;2023-01-05T08:56:35;17.70;;;14.10;;
39956;SDS011;48483;44.640;7.494;2023-01-05T08:59:02;24.50;;;16.85;;
39956;SDS011;48483;44.640;7.494;2023-01-05T09:01:29;21.90;;;14.80;;
39956;SDS011;48483;44.640;7.494;2023-01-05T09:03:56;20.00;;;15.98;;
39956;SDS011;48483;44.640;7.494;2023-01-05T09:06:22;20.45;;;16.90;;
39956;SDS011;48483;44.640;7.494;2023-01-05T09:08:49;20.73;;;16.50;;
39956;SDS011;48483;44.640;7.494;2023-01-05T09:11:16;24.63;;;19.08;;
39956;SDS011;48483;44.640;7.494;2023-01-05T09:13:46;22.33;;;17.90;;
39956;SDS011;48483;44.640;7.494;2023-01-05T09:16:14;25.35;;;20.45;;
39956;SDS011;48483;44.640;7.494;2023-01-05T09:18:43;25.23;;;19.63;;
39956;SDS011;48483;44.640;7.494;2023-01-05T09:21:11;25.08;;;17.90;;
39956;SDS011;48483;44.640;7.494;2023-01-05T09:23:38;19.90;;;15.45;;
39956;SDS011;48483;44.640;7.494;2023-01-05T09:26:05;18.25;;;12.80;;
39956;SDS011;48483;44.640;7.494;2023-01-05T09:28:33;16.70;;;11.98;;
39956;SDS011;48483;44.640;7.494;2023-01-05T09:31:06;12.70;;;9.57;;
39956;SDS011;48483;44.640;7.494;2023-01-05T09:33:33;12.55;;;9.10;;
39956;SDS011;48483;44.640;7.494;2023-01-05T09:36:00;14.05;;;9.52;;
39956;SDS011;48483;44.640;7.494;2023-01-05T09:38:27;11.63;;;8.48;;
39956;SDS011;48483;44.640;7.494;2023-01-05T09:40:54;14.05;;;8.77;;
39956;SDS011;48483;44.640;7.494;2023-01-05T09:43:25;11.63;;;7.47;;
39956;SDS011;48483;44.640;7.494;2023-01-05T09:45:55;10.02;;;7.15;;
39956;SDS011;48483;44.640;7.494;2023-01-05T09:48:23;11.00;;;7.30;;
39956;SDS011;48483;44.640;7.494;2023-01-05T09:50:50;9.60;;;6.85;;
39956;SDS011;48483;44.640;7.494;2023-01-05T09:53:21;11.27;;;6.80;;
39956;SDS011;48483;44.640;7.494;2023-01-05T09:55:54;11.18;;;7.45;;
39956;SDS011;48483;44.640;7.494;2023-01-05T09:58:22;11.43;;;7.32;;
39956;SDS011;48483;44.640;7.494;2023-01-05T10:00:55;11.23;;;8.02;;
39956;SDS011;48483;44.640;7.494;2023-01-05T10:03:33;11.48;;;7.65;;
39956;SDS011;48483;44.640;7.494;2023-01-05T10:06:03;12.20;;;8.20;;
39956;SDS011;48483;44.640;7.494;2023-01-05T10:08:32;11.75;;;7.68;;
39956;SDS011;48483;44.640;7.494;2023-01-05T10:11:03;13.77;;;8.50;;
39956;SDS011;48483;44.640;7.494;2023-01-05T10:13:53;11.32;;;7.90;;
39956;SDS011;48483;44.640;7.494;2023-01-05T10:16:24;13.45;;;7.55;;
39956;SDS011;48483;44.640;7.494;2023-01-05T10:18:52;16.73;;;7.97;;
39956;SDS011;48483;44.640;7.494;2023-01-05T10:21:21;17.08;;;10.98;;
39956;SDS011;48483;44.640;7.494;2023-01-05T10:23:55;16.65;;;12.85;;
39956;SDS011;48483;44.640;7.494;2023-01-05T10:26:36;19.27;;;15.05;;
39956;SDS011;48483;44.640;7.494;2023-01-05T10:29:10;21.60;;;15.65;;
39956;SDS011;48483;44.640;7.494;2023-01-05T10:31:43;22.23;;;15.73;;
39956;SDS011;48483;44.640;7.494;2023-01-05T10:34:17;21.08;;;16.20;;
39956;SDS011;48483;44.640;7.494;2023-01-05T10:36:50;28.80;;;16.80;;
39956;SDS011;48483;44.640;7.494;2023-01-05T10:39:27;18.85;;;15.82;;
39956;SDS011;48483;44.640;7.494;2023-01-05T10:42:07;18.65;;;15.35;;
39956;SDS011;48483;44.640;7.494;2023-01-05T10:44:41;19.65;;;15.95;;
39956;SDS011;48483;44.640;7.494;2023-01-05T10:47:18;19.90;;;17.80;;
39956;SDS011;48483;44.640;7.494;2023-01-05T10:49:47;20.30;;;17.73;;
39956;SDS011;48483;44.640;7.494;2023-01-05T10:52:15;22.75;;;18.63;;
39956;SDS011;48483;44.640;7.494;2023-01-05T10:54:44;20.92;;;17.38;;
39956;SDS011;48483;44.640;7.494;2023-01-05T10:57:32;22.35;;;17.92;;
39956;SDS011;48483;44.640;7.494;2023-01-05T11:00:04;20.70;;;18.40;;
39956;SDS011;48483;44.640;7.494;2023-01-05T11:02:35;21.05;;;18.80;;
39956;SDS011;48483;44.640;7.494;2023-01-05T11:05:05;25.00;;;18.95;;
39956;SDS011;48483;44.640;7.494;2023-01-05T11:07:45;21.92;;;19.50;;
39956;SDS011;48483;44.640;7.494;2023-01-05T11:10:17;21.10;;;18.05;;
39956;SDS011;48483;44.640;7.494;2023-01-05T11:12:49;21.38;;;16.58;;
39956;SDS011;48483;44.640;7.494;2023-01-05T11:15:18;23.52;;;16.08;;
39956;SDS011;48483;44.640;7.494;2023-01-05T11:17:46;18.38;;;15.27;;
39956;SDS011;48483;44.640;7.494;2023-01-05T11:20:17;16.17;;;14.48;;
39956;SDS011;48483;44.640;7.494;2023-01-05T11:22:44;15.88;;;13.18;;
39956;SDS011;48483;44.640;7.494;2023-01-05T11:25:18;17.25;;;12.77;;
39956;SDS011;48483;44.640;7.494;2023-01-05T11:28:08;18.45;;;12.35;;
39956;SDS011;48483;44.640;7.494;2023-01-05T11:30:37;14.05;;;11.13;;
39956;SDS011;48483;44.640;7.494;2023-01-05T11:33:12;14.73;;;10.95;;
39956;SDS011;48483;44.640;7.494;2023-01-05T11:35:49;15.45;;;11.82;;
39956;SDS011;48483;44.640;7.494;2023-01-05T11:38:19;15.25;;;11.85;;
39956;SDS011;48483;44.640;7.494;2023-01-05T11:40:48;19.27;;;14.75;;
39956;SDS011;48483;44.640;7.494;2023-01-05T11:43:15;19.38;;;15.85;;
39956;SDS011;48483;44.640;7.494;2023-01-05T11:45:45;19.30;;;15.68;;
39956;SDS011;48483;44.640;7.494;2023-01-05T11:48:14;17.30;;;15.37;;
39956;SDS011;48483;44.640;7.494;2023-01-05T11:50:45;17.88;;;14.93;;
39956;SDS011;48483;44.640;7.494;2023-01-05T11:53:22;19.10;;;14.73;;
39956;SDS011;48483;44.640;7.494;2023-01-05T11:55:57;19.55;;;16.35;;
39956;SDS011;48483;44.640;7.494;2023-01-05T11:58:27;22.40;;;16.95;;
39956;SDS011;48483;44.640;7.494;2023-01-05T12:04:18;20.15;;;16.55;;
39956;SDS011;48483;44.640;7.494;2023-01-05T12:06:57;19.85;;;17.00;;
39956;SDS011;48483;44.640;7.494;2023-01-05T12:09:40;23.73;;;17.40;;
39956;SDS011;48483;44.640;7.494;2023-01-05T12:12:23;21.33;;;17.48;;
39956;SDS011;48483;44.640;7.494;2023-01-05T12:15:11;18.60;;;16.60;;
39956;SDS011;48483;44.640;7.494;2023-01-05T12:18:01;21.20;;;17.95;;
39956;SDS011;48483;44.640;7.494;2023-01-05T12:20:47;23.17;;;18.67;;
39956;SDS011;48483;44.640;7.494;2023-01-05T12:23:30;23.02;;;18.65;;
39956;SDS011;48483;44.640;7.494;2023-01-05T12:26:12;21.17;;;18.42;;
39956;SDS011;48483;44.640;7.494;2023-01-05T12:28:50;19.15;;;17.15;;
39956;SDS011;48483;44.640;7.494;2023-01-05T12:31:36;20.15;;;17.10;;
39956;SDS011;48483;44.640;7.494;2023-01-05T12:36:56;21.60;;;17.13;;
39956;SDS011;48483;44.640;7.494;2023-01-05T12:39:37;22.38;;;16.90;;
39956;SDS011;48483;44.640;7.494;2023-01-05T12:42:34;21.52;;;16.75;;
39956;SDS011;48483;44.640;7.494;2023-01-05T12:45:41;19.10;;;15.25;;
39956;SDS011;48483;44.640;7.494;2023-01-05T12:48:21;16.98;;;14.32;;
39956;SDS011;48483;44.640;7.494;2023-01-05T12:50:53;15.85;;;14.05;;
39956;SDS011;48483;44.640;7.494;2023-01-05T12:53:32;17.63;;;13.57;;
39956;SDS011;48483;44.640;7.494;2023-01-05T12:56:08;18.13;;;14.75;;
39956;SDS011;48483;44.640;7.494;2023-01-05T12:58:47;17.48;;;14.52;;
39956;SDS011;48483;44.640;7.494;2023-01-05T13:01:21;16.83;;;12.73;;
39956;SDS011;48483;44.640;7.494;2023-01-05T13:03:53;14.65;;;13.15;;
39956;SDS011;48483;44.640;7.494;2023-01-05T13:06:23;15.43;;;12.77;;
39956;SDS011;48483;44.640;7.494;2023-01-05T13:08:56;14.50;;;12.27;;
39956;SDS011;48483;44.640;7.494;2023-01-05T13:11:28;14.93;;;12.27;;
39956;SDS011;48483;44.640;7.494;2023-01-05T13:14:02;13.75;;;12.10;;
39956;SDS011;48483;44.640;7.494;2023-01-05T13:16:31;17.83;;;14.00;;
39956;SDS011;48483;44.640;7.494;2023-01-05T13:19:03;18.20;;;13.65;;
39956;SDS011;48483;44.640;7.494;2023-01-05T13:21:40;14.25;;;11.60;;
39956;SDS011;48483;44.640;7.494;2023-01-05T13:24:10;18.45;;;12.80;;
39956;SDS011;48483;44.640;7.494;2023-01-05T13:26:42;14.77;;;12.30;;
39956;SDS011;48483;44.640;7.494;2023-01-05T13:29:12;14.55;;;12.35;;
39956;SDS011;48483;44.640;7.494;2023-01-05T13:31:48;14.25;;;12.38;;
39956;SDS011;48483;44.640;7.494;2023-01-05T13:34:35;17.50;;;10.35;;
39956;SDS011;48483;44.640;7.494;2023-01-05T13:37:20;15.05;;;10.40;;
39956;SDS011;48483;44.640;7.494;2023-01-05T13:40:02;16.23;;;11.50;;
39956;SDS011;48483;44.640;7.494;2023-01-05T13:42:56;13.82;;;10.82;;
39956;SDS011;48483;44.640;7.494;2023-01-05T13:45:45;12.35;;;10.05;;
39956;SDS011;48483;44.640;7.494;2023-01-05T13:48:27;14.73;;;10.77;;
39956;SDS011;48483;44.640;7.494;2023-01-05T13:51:19;16.48;;;11.38;;
39956;SDS011;48483;44.640;7.494;2023-01-05T13:53:57;12.68;;;10.93;;
39956;SDS011;48483;44.640;7.494;2023-01-05T13:56:30;13.85;;;10.73;;
39956;SDS011;48483;44.640;7.494;2023-01-05T13:58:59;16.08;;;12.38;;
39956;SDS011;48483;44.640;7.494;2023-01-05T14:01:34;15.13;;;12.88;;
39956;SDS011;48483;44.640;7.494;2023-01-05T14:04:02;16.42;;;14.32;;
39956;SDS011;48483;44.640;7.494;2023-01-05T14:06:31;19.80;;;14.30;;
39956;SDS011;48483;44.640;7.494;2023-01-05T14:09:00;14.80;;;12.67;;
39956;SDS011;48483;44.640;7.494;2023-01-05T14:11:29;17.00;;;14.15;;
39956;SDS011;48483;44.640;7.494;2023-01-05T14:13:56;16.67;;;14.52;;
39956;SDS011;48483;44.640;7.494;2023-01-05T14:19:22;16.52;;;14.75;;
39956;SDS011;48483;44.640;7.494;2023-01-05T14:22:03;19.65;;;16.00;;
39956;SDS011;48483;44.640;7.494;2023-01-05T14:24:45;19.90;;;15.38;;
39956;SDS011;48483;44.640;7.494;2023-01-05T14:27:13;17.63;;;15.55;;
39956;SDS011;48483;44.640;7.494;2023-01-05T14:32:47;22.17;;;17.00;;
39956;SDS011;48483;44.640;7.494;2023-01-05T14:35:20;20.13;;;15.40;;
39956;SDS011;48483;44.640;7.494;2023-01-05T14:37:51;19.45;;;16.63;;
39956;SDS011;48483;44.640;7.494;2023-01-05T14:40:26;19.63;;;16.13;;
39956;SDS011;48483;44.640;7.494;2023-01-05T14:42:59;20.30;;;15.48;;
39956;SDS011;48483;44.640;7.494;2023-01-05T14:45:28;18.48;;;14.65;;
39956;SDS011;48483;44.640;7.494;2023-01-05T14:47:58;21.10;;;16.10;;
39956;SDS011;48483;44.640;7.494;2023-01-05T14:50:29;19.85;;;14.88;;
39956;SDS011;48483;44.640;7.494;2023-01-05T14:53:00;18.20;;;15.65;;
39956;SDS011;48483;44.640;7.494;2023-01-05T14:55:30;17.02;;;15.07;;
39956;SDS011;48483;44.640;7.494;2023-01-05T14:57:58;20.98;;;16.73;;
39956;SDS011;48483;44.640;7.494;2023-01-05T15:00:34;20.85;;;16.48;;
39956;SDS011;48483;44.640;7.494;2023-01-05T15:03:12;23.05;;;16.98;;
39956;SDS011;48483;44.640;7.494;2023-01-05T15:08:26;19.48;;;15.95;;
39956;SDS011;48483;44.640;7.494;2023-01-05T15:11:17;21.63;;;18.08;;
39956;SDS011;48483;44.640;7.494;2023-01-05T15:14:08;25.77;;;17.92;;